Time;durP1;ratioP1;P1;durP2;ratioP2;P2;SDS_P1;SDS_P2;PMS_P1;PMS_P2;Temp;Humidity;BMP_temperature;BMP_pressure;BME280_temperature;BME280_humidity;BME280_pressure;Samples;Min_cycle;Max_cycle;Signal;HPM_P1;HPM_P2
2023/03/30 00:02:17;;;;;;;8.63;4.47;;;;;;;;;;5034924;28;20104;-77
2023/03/30 00:04:42;;;;;;;8.65;4.13;;;;;;;;;;5033279;28;20022;-77
2023/03/30 00:07:08;;;;;;;8.23;4.93;;;;;;;;;;5034844;28;20029;-77
2023/03/30 00:09:41;;;;;;;10.63;5.00;;;;;;;;;;5034498;28;20113;-77
2023/03/30 00:12:07;;;;;;;7.05;4.65;;;;;;;;;;5034880;28;20507;-77
2023/03/30 00:14:36;;;;;;;7.05;4.70;;;;;;;;;;5034831;28;20105;-77
2023/03/30 00:17:01;;;;;;;8.82;4.80;;;;;;;;;;5034596;28;20486;-77
2023/03/30 00:19:27;;;;;;;8.75;4.80;;;;;;;;;;5034343;28;20040;-77
2023/03/30 00:21:52;;;;;;;9.73;4.97;;;;;;;;;;5034585;28;20033;-77
2023/03/30 00:24:17;;;;;;;8.85;4.75;;;;;;;;;;5034279;28;20333;-78
2023/03/30 00:26:43;;;;;;;6.33;4.30;;;;;;;;;;5034104;28;20029;-77
2023/03/30 00:29:08;;;;;;;12.07;4.43;;;;;;;;;;5034073;28;20409;-77
2023/03/30 00:31:33;;;;;;;7.43;4.40;;;;;;;;;;5034527;28;20289;-76
2023/03/30 00:33:58;;;;;;;8.18;4.90;;;;;;;;;;5034191;28;20469;-77
2023/03/30 00:36:24;;;;;;;8.90;4.03;;;;;;;;;;5034291;28;20370;-76
2023/03/30 00:38:50;;;;;;;7.43;4.50;;;;;;;;;;5034019;28;20606;-76
2023/03/30 00:41:15;;;;;;;5.83;3.90;;;;;;;;;;5032466;28;20029;-76
2023/03/30 00:44:01;;;;;;;7.05;4.20;;;;;;;;;;5033877;28;20274;-77
2023/03/30 00:46:29;;;;;;;6.07;3.95;;;;;;;;;;5034051;28;20034;-76
2023/03/30 00:48:56;;;;;;;5.88;3.67;;;;;;;;;;5032365;28;20049;-76
2023/03/30 00:51:23;;;;;;;7.50;4.55;;;;;;;;;;5033616;28;20036;-76
2023/03/30 00:53:51;;;;;;;7.35;3.95;;;;;;;;;;5033778;28;20083;-76
2023/03/30 00:56:22;;;;;;;6.47;3.95;;;;;;;;;;5033344;28;20037;-76
2023/03/30 00:58:48;;;;;;;9.07;4.32;;;;;;;;;;5031469;28;20032;-76
2023/03/30 01:01:17;;;;;;;9.50;4.07;;;;;;;;;;5033685;28;20029;-75
2023/03/30 01:03:46;;;;;;;9.20;3.97;;;;;;;;;;5033406;28;20488;-76
2023/03/30 01:06:16;;;;;;;7.03;4.07;;;;;;;;;;5031898;28;20036;-76
2023/03/30 01:08:43;;;;;;;7.05;3.88;;;;;;;;;;5033039;28;20029;-76
2023/03/30 01:11:08;;;;;;;6.50;3.97;;;;;;;;;;5033158;28;20021;-77
2023/03/30 01:13:37;;;;;;;7.75;4.05;;;;;;;;;;5031974;28;20090;-77
2023/03/30 01:16:26;;;;;;;7.35;4.25;;;;;;;;;;5033217;28;20366;-77
2023/03/30 01:19:00;;;;;;;7.03;4.07;;;;;;;;;;5031916;28;20124;-76
2023/03/30 01:22:19;;;;;;;7.60;4.20;;;;;;;;;;5033423;28;20396;-77
2023/03/30 01:25:01;;;;;;;7.95;4.45;;;;;;;;;;5032921;28;20044;-76
2023/03/30 01:27:29;;;;;;;7.07;4.38;;;;;;;;;;5033107;28;20032;-78
2023/03/30 01:30:19;;;;;;;9.40;4.32;;;;;;;;;;5031903;28;20120;-75
2023/03/30 01:33:22;;;;;;;7.20;3.75;;;;;;;;;;5033343;28;20080;-77
2023/03/30 01:35:56;;;;;;;5.95;3.70;;;;;;;;;;5032936;28;20477;-76
2023/03/30 01:38:38;;;;;;;10.68;4.43;;;;;;;;;;5033495;28;20167;-76
2023/03/30 01:41:13;;;;;;;6.82;4.05;;;;;;;;;;5033331;28;20033;-76
2023/03/30 01:43:50;;;;;;;8.27;4.40;;;;;;;;;;5031695;28;20025;-76
2023/03/30 01:46:29;;;;;;;6.63;3.80;;;;;;;;;;5032833;28;20028;-77
2023/03/30 01:49:26;;;;;;;6.65;3.92;;;;;;;;;;5033026;28;20032;-75
2023/03/30 01:52:13;;;;;;;10.02;4.50;;;;;;;;;;5030840;28;20037;-77
2023/03/30 01:54:45;;;;;;;12.30;4.45;;;;;;;;;;5033191;28;20021;-77
2023/03/30 01:57:34;;;;;;;6.10;3.95;;;;;;;;;;5033269;28;20064;-77
2023/03/30 02:00:13;;;;;;;8.63;4.13;;;;;;;;;;5025694;28;20037;-76
2023/03/30 02:02:42;;;;;;;7.07;4.43;;;;;;;;;;5033520;28;20374;-77
2023/03/30 02:05:10;;;;;;;8.68;4.90;;;;;;;;;;5033610;28;20018;-77
2023/03/30 02:07:38;;;;;;;7.00;4.45;;;;;;;;;;5031676;28;20029;-77
2023/03/30 02:10:06;;;;;;;9.45;4.90;;;;;;;;;;5034176;28;20074;-77
2023/03/30 02:12:32;;;;;;;7.90;4.72;;;;;;;;;;5036804;28;20021;-78
2023/03/30 02:15:03;;;;;;;7.65;4.80;;;;;;;;;;5036510;28;20366;-76
2023/03/30 02:17:29;;;;;;;8.50;5.25;;;;;;;;;;5035318;28;20017;-77
2023/03/30 02:19:56;;;;;;;7.93;5.10;;;;;;;;;;5035164;28;20035;-77
2023/03/30 02:22:23;;;;;;;10.10;4.80;;;;;;;;;;5035104;28;20079;-77
2023/03/30 02:24:52;;;;;;;8.27;4.70;;;;;;;;;;5036512;28;20032;-77
2023/03/30 02:27:18;;;;;;;9.65;5.57;;;;;;;;;;5035715;28;20416;-76
2023/03/30 02:29:44;;;;;;;11.20;5.63;;;;;;;;;;5034817;28;20022;-76
2023/03/30 02:32:19;;;;;;;7.93;5.25;;;;;;;;;;5036530;28;20028;-77
2023/03/30 02:35:17;;;;;;;9.18;5.68;;;;;;;;;;5036726;28;20392;-78
2023/03/30 02:38:01;;;;;;;11.65;5.95;;;;;;;;;;5036144;28;20032;-76
2023/03/30 02:40:48;;;;;;;10.98;6.38;;;;;;;;;;5035286;28;20030;-77
2023/03/30 02:43:29;;;;;;;10.88;6.15;;;;;;;;;;5035891;28;20065;-76
2023/03/30 02:46:01;;;;;;;12.38;6.47;;;;;;;;;;5034844;28;20056;-77
2023/03/30 02:48:36;;;;;;;13.38;6.97;;;;;;;;;;5035807;28;20021;-76
2023/03/30 02:51:19;;;;;;;11.68;7.03;;;;;;;;;;5034587;28;20053;-76
2023/03/30 02:54:05;;;;;;;13.68;6.75;;;;;;;;;;5035999;28;20499;-76
2023/03/30 02:56:46;;;;;;;13.75;7.65;;;;;;;;;;5036214;28;20021;-78
2023/03/30 02:59:17;;;;;;;13.18;7.13;;;;;;;;;;5036018;28;20104;-76
2023/03/30 03:01:55;;;;;;;12.90;6.80;;;;;;;;;;5036096;28;20469;-77
2023/03/30 03:04:21;;;;;;;12.45;7.40;;;;;;;;;;5036860;28;20124;-77
2023/03/30 03:06:51;;;;;;;12.55;7.25;;;;;;;;;;5038401;28;20437;-78
2023/03/30 03:09:17;;;;;;;14.20;7.60;;;;;;;;;;5037358;28;20508;-77
2023/03/30 03:11:43;;;;;;;13.63;6.97;;;;;;;;;;5036025;28;20027;-77
2023/03/30 03:14:08;;;;;;;15.37;7.60;;;;;;;;;;5035964;28;20477;-77
2023/03/30 03:16:33;;;;;;;14.00;7.32;;;;;;;;;;5035650;28;20768;-77
2023/03/30 03:18:58;;;;;;;13.88;7.43;;;;;;;;;;5035529;28;20103;-76
2023/03/30 03:21:24;;;;;;;14.20;8.07;;;;;;;;;;5033473;28;20026;-77
2023/03/30 03:23:49;;;;;;;12.73;7.90;;;;;;;;;;5035537;28;20278;-77
2023/03/30 03:26:14;;;;;;;14.45;7.97;;;;;;;;;;5035325;28;20029;-76
2023/03/30 03:28:39;;;;;;;12.53;8.00;;;;;;;;;;5034214;28;20424;-77
2023/03/30 03:31:05;;;;;;;14.47;7.30;;;;;;;;;;5034509;28;20689;-78
2023/03/30 03:33:33;;;;;;;13.05;7.72;;;;;;;;;;5035647;28;20653;-77
2023/03/30 03:35:59;;;;;;;14.30;7.68;;;;;;;;;;5035698;28;20075;-76
2023/03/30 03:38:25;;;;;;;13.35;7.47;;;;;;;;;;5034110;28;20029;-76
2023/03/30 03:40:52;;;;;;;12.13;7.25;;;;;;;;;;5034868;28;20473;-77
2023/03/30 03:43:18;;;;;;;14.07;7.53;;;;;;;;;;5034772;28;20056;-77
2023/03/30 03:45:47;;;;;;;11.80;7.25;;;;;;;;;;5033893;28;20065;-77
2023/03/30 03:48:14;;;;;;;13.18;7.05;;;;;;;;;;5034831;28;20087;-76
2023/03/30 03:50:40;;;;;;;11.73;7.40;;;;;;;;;;5034735;28;20028;-77
2023/03/30 03:53:05;;;;;;;13.25;7.82;;;;;;;;;;5034846;28;20074;-77
2023/03/30 03:55:33;;;;;;;10.73;6.63;;;;;;;;;;5033705;28;20033;-78
2023/03/30 03:57:59;;;;;;;13.45;6.90;;;;;;;;;;5034679;28;20040;-76
2023/03/30 04:00:25;;;;;;;12.32;6.50;;;;;;;;;;5034525;28;20026;-76
2023/03/30 04:02:50;;;;;;;14.32;7.72;;;;;;;;;;5035376;28;20109;-77
2023/03/30 04:05:16;;;;;;;13.20;7.28;;;;;;;;;;5036464;28;20104;-77
2023/03/30 04:07:45;;;;;;;11.82;7.22;;;;;;;;;;5035015;28;20021;-77
2023/03/30 04:10:10;;;;;;;13.40;7.25;;;;;;;;;;5034887;28;20064;-78
2023/03/30 04:12:35;;;;;;;11.68;6.65;;;;;;;;;;5036206;28;20026;-77
2023/03/30 04:15:01;;;;;;;11.45;6.70;;;;;;;;;;5035314;28;20075;-76
2023/03/30 04:17:26;;;;;;;11.57;6.72;;;;;;;;;;5033639;28;20042;-77
2023/03/30 04:19:55;;;;;;;13.73;6.72;;;;;;;;;;5034873;28;20033;-77
2023/03/30 04:22:24;;;;;;;13.20;6.88;;;;;;;;;;5034926;28;20053;-77
2023/03/30 04:24:50;;;;;;;11.93;7.00;;;;;;;;;;5034519;28;20048;-77
2023/03/30 04:27:15;;;;;;;11.77;6.88;;;;;;;;;;5034774;28;20048;-77
2023/03/30 04:29:43;;;;;;;13.35;7.50;;;;;;;;;;5034586;28;20466;-77
2023/03/30 04:32:11;;;;;;;12.02;6.60;;;;;;;;;;5034344;28;20021;-79
2023/03/30 04:34:37;;;;;;;12.88;7.53;;;;;;;;;;5033964;28;20028;-77
2023/03/30 04:37:02;;;;;;;12.07;7.05;;;;;;;;;;5034861;28;20029;-78
2023/03/30 04:39:28;;;;;;;14.70;7.75;;;;;;;;;;5035850;28;20464;-78
2023/03/30 04:41:54;;;;;;;11.20;7.00;;;;;;;;;;5040769;28;20502;-78
2023/03/30 04:44:19;;;;;;;11.88;6.75;;;;;;;;;;5041083;28;20120;-78
2023/03/30 04:46:45;;;;;;;12.70;7.22;;;;;;;;;;5040789;28;20034;-78
2023/03/30 04:49:10;;;;;;;12.55;6.93;;;;;;;;;;5040631;28;20022;-78
2023/03/30 04:51:36;;;;;;;11.93;7.30;;;;;;;;;;5039634;28;20025;-78
2023/03/30 04:54:02;;;;;;;12.50;7.20;;;;;;;;;;5041840;28;20021;-79
2023/03/30 04:56:27;;;;;;;13.50;6.65;;;;;;;;;;5037704;28;20052;-77
2023/03/30 04:58:52;;;;;;;13.40;7.15;;;;;;;;;;5036476;28;20400;-76
2023/03/30 05:01:18;;;;;;;13.37;7.17;;;;;;;;;;5034585;28;20079;-77
2023/03/30 05:03:43;;;;;;;12.20;7.07;;;;;;;;;;5036547;28;20294;-78
2023/03/30 05:06:08;;;;;;;14.40;7.38;;;;;;;;;;5036139;28;20266;-78
2023/03/30 05:08:34;;;;;;;14.23;7.70;;;;;;;;;;5036052;28;20080;-77
2023/03/30 05:11:03;;;;;;;12.38;8.15;;;;;;;;;;5034103;28;20056;-76
2023/03/30 05:13:29;;;;;;;14.13;7.57;;;;;;;;;;5033992;28;20020;-77
2023/03/30 05:15:55;;;;;;;12.50;7.25;;;;;;;;;;5034088;28;20025;-77
2023/03/30 05:18:20;;;;;;;12.10;7.05;;;;;;;;;;5033277;28;20074;-78
2023/03/30 05:20:46;;;;;;;11.07;6.82;;;;;;;;;;5032427;28;20021;-77
2023/03/30 05:23:11;;;;;;;12.60;6.43;;;;;;;;;;5033575;28;20156;-76
2023/03/30 05:25:36;;;;;;;13.00;7.07;;;;;;;;;;5032562;28;20021;-77
2023/03/30 05:28:02;;;;;;;18.05;8.20;;;;;;;;;;5032536;28;20281;-77
2023/03/30 05:30:27;;;;;;;14.00;6.93;;;;;;;;;;5034435;28;20096;-78
2023/03/30 05:32:53;;;;;;;12.30;7.00;;;;;;;;;;5035031;28;20075;-76
2023/03/30 05:35:19;;;;;;;12.45;6.82;;;;;;;;;;5033376;28;20025;-76
2023/03/30 05:37:44;;;;;;;12.80;7.13;;;;;;;;;;5032401;28;20033;-77
2023/03/30 05:40:09;;;;;;;16.38;6.95;;;;;;;;;;5035280;28;20539;-77
2023/03/30 05:42:35;;;;;;;13.32;6.78;;;;;;;;;;5033854;28;20079;-76
2023/03/30 05:45:01;;;;;;;12.60;7.63;;;;;;;;;;5035628;28;20466;-77
2023/03/30 05:47:27;;;;;;;12.77;7.28;;;;;;;;;;5038338;28;20402;-77
2023/03/30 05:49:52;;;;;;;13.00;7.05;;;;;;;;;;5038561;28;20400;-77
2023/03/30 05:52:18;;;;;;;13.02;6.85;;;;;;;;;;5040461;28;20025;-77
2023/03/30 05:54:43;;;;;;;15.17;7.10;;;;;;;;;;5039463;28;20029;-77
2023/03/30 05:57:08;;;;;;;14.73;6.37;;;;;;;;;;5038950;28;20262;-77
2023/03/30 05:59:33;;;;;;;12.93;6.70;;;;;;;;;;5037477;28;20255;-77
2023/03/30 06:01:59;;;;;;;11.23;6.83;;;;;;;;;;5038612;28;20253;-77
2023/03/30 06:04:26;;;;;;;9.23;6.00;;;;;;;;;;5037389;28;20278;-77
2023/03/30 06:06:52;;;;;;;10.13;6.10;;;;;;;;;;5038647;28;20348;-78
2023/03/30 06:09:17;;;;;;;13.60;6.38;;;;;;;;;;5037771;28;20030;-77
2023/03/30 06:11:42;;;;;;;11.65;6.82;;;;;;;;;;5039385;28;20095;-77
2023/03/30 06:14:09;;;;;;;11.60;6.38;;;;;;;;;;5037887;28;20024;-77
2023/03/30 06:16:34;;;;;;;12.73;6.63;;;;;;;;;;5039512;28;20075;-77
2023/03/30 06:19:00;;;;;;;14.48;8.00;;;;;;;;;;5038424;28;20017;-77
2023/03/30 06:21:25;;;;;;;13.48;6.72;;;;;;;;;;5036086;28;20032;-77
2023/03/30 06:23:50;;;;;;;10.65;6.57;;;;;;;;;;5036838;28;20040;-77
2023/03/30 06:26:16;;;;;;;15.43;7.25;;;;;;;;;;5038319;28;20104;-77
2023/03/30 06:28:41;;;;;;;11.90;7.07;;;;;;;;;;5038277;28;20043;-77
2023/03/30 06:31:08;;;;;;;13.07;6.87;;;;;;;;;;5037562;28;20286;-77
2023/03/30 06:33:34;;;;;;;10.75;7.05;;;;;;;;;;5036667;28;20262;-78
2023/03/30 06:36:00;;;;;;;11.48;6.50;;;;;;;;;;5038838;28;20029;-77
2023/03/30 06:38:25;;;;;;;13.65;6.03;;;;;;;;;;5038050;28;20021;-76
2023/03/30 06:40:50;;;;;;;11.02;6.40;;;;;;;;;;5038116;28;20017;-78
2023/03/30 06:43:22;;;;;;;12.15;6.47;;;;;;;;;;5035646;28;20021;-77
2023/03/30 06:45:55;;;;;;;11.48;6.55;;;;;;;;;;5037464;28;20048;-77
2023/03/30 06:48:22;;;;;;;10.00;6.28;;;;;;;;;;5038866;28;20026;-77
2023/03/30 06:50:49;;;;;;;9.75;6.15;;;;;;;;;;5038659;28;20026;-77
2023/03/30 06:53:15;;;;;;;12.23;6.70;;;;;;;;;;5037490;28;20040;-77
2023/03/30 06:55:40;;;;;;;11.48;6.22;;;;;;;;;;5035785;28;20022;-77
2023/03/30 06:58:06;;;;;;;12.48;6.60;;;;;;;;;;5036163;28;20029;-76
2023/03/30 07:00:31;;;;;;;11.80;6.03;;;;;;;;;;5035589;28;20025;-77
2023/03/30 07:02:56;;;;;;;14.48;6.80;;;;;;;;;;5036133;28;20029;-79
2023/03/30 07:05:23;;;;;;;11.60;6.57;;;;;;;;;;5037712;28;20037;-77
2023/03/30 07:07:49;;;;;;;15.30;6.50;;;;;;;;;;5037083;28;20332;-77
2023/03/30 07:10:15;;;;;;;12.70;7.15;;;;;;;;;;5035866;28;20025;-76
2023/03/30 07:12:40;;;;;;;12.35;6.70;;;;;;;;;;5037391;28;20026;-77
2023/03/30 07:15:06;;;;;;;10.43;6.10;;;;;;;;;;5036535;28;20379;-77
2023/03/30 07:17:35;;;;;;;15.50;7.22;;;;;;;;;;5038549;28;20025;-77
2023/03/30 07:20:02;;;;;;;9.63;5.80;;;;;;;;;;5037459;28;20112;-77
2023/03/30 07:22:28;;;;;;;12.23;5.78;;;;;;;;;;5035883;28;20040;-77
2023/03/30 07:24:54;;;;;;;12.88;5.93;;;;;;;;;;5035601;28;20029;-75
2023/03/30 07:27:19;;;;;;;11.85;5.50;;;;;;;;;;5036166;28;20032;-77
2023/03/30 07:29:44;;;;;;;11.52;5.55;;;;;;;;;;5036687;28;20051;-77
2023/03/30 07:32:10;;;;;;;13.32;6.00;;;;;;;;;;5036944;28;20038;-78
2023/03/30 07:34:35;;;;;;;15.25;6.10;;;;;;;;;;5038210;28;20033;-78
2023/03/30 07:37:00;;;;;;;9.30;5.28;;;;;;;;;;5033676;28;20496;-77
2023/03/30 07:39:26;;;;;;;9.57;5.07;;;;;;;;;;5034797;28;20408;-77
2023/03/30 07:41:52;;;;;;;9.65;4.82;;;;;;;;;;5035372;28;20459;-77
2023/03/30 07:44:17;;;;;;;11.50;4.82;;;;;;;;;;5037165;28;20139;-76
2023/03/30 07:46:42;;;;;;;9.15;4.90;;;;;;;;;;5034130;28;20025;-76
2023/03/30 07:49:07;;;;;;;8.27;4.35;;;;;;;;;;5034886;28;20033;-77
2023/03/30 07:51:33;;;;;;;8.50;4.87;;;;;;;;;;5035697;28;20029;-76
2023/03/30 07:53:59;;;;;;;9.48;5.30;;;;;;;;;;5035923;28;20342;-77
2023/03/30 07:56:24;;;;;;;9.18;5.10;;;;;;;;;;5035682;28;20033;-77
2023/03/30 07:58:50;;;;;;;8.57;5.30;;;;;;;;;;5039953;28;20036;-78
2023/03/30 08:01:15;;;;;;;11.32;4.93;;;;;;;;;;5043707;28;20485;-76
2023/03/30 08:03:43;;;;;;;10.82;5.68;;;;;;;;;;5037249;28;20051;-78
2023/03/30 08:06:10;;;;;;;14.95;5.82;;;;;;;;;;5036037;28;20052;-77
2023/03/30 08:08:37;;;;;;;9.00;5.82;;;;;;;;;;5032692;28;20072;-77
2023/03/30 08:11:03;;;;;;;10.35;5.60;;;;;;;;;;5034508;28;20032;-77
2023/03/30 08:13:28;;;;;;;17.52;6.28;;;;;;;;;;5034401;28;20025;-78
2023/03/30 08:15:54;;;;;;;13.02;5.32;;;;;;;;;;5033191;28;20026;-74
2023/03/30 08:18:19;;;;;;;13.82;5.57;;;;;;;;;;5034277;28;20041;-75
2023/03/30 08:20:52;;;;;;;10.00;5.68;;;;;;;;;;5032546;28;20400;-75
2023/03/30 08:23:18;;;;;;;9.93;5.88;;;;;;;;;;5032729;28;20063;-74
2023/03/30 08:25:44;;;;;;;13.30;6.38;;;;;;;;;;5032667;28;20476;-75
2023/03/30 08:28:10;;;;;;;10.43;5.78;;;;;;;;;;5033770;28;20508;-75
2023/03/30 08:30:35;;;;;;;13.23;5.72;;;;;;;;;;5033666;28;20033;-74
2023/03/30 08:33:00;;;;;;;9.63;5.47;;;;;;;;;;5033558;28;20036;-74
2023/03/30 08:35:26;;;;;;;16.60;5.93;;;;;;;;;;5033833;28;20307;-75
2023/03/30 08:37:52;;;;;;;13.00;5.43;;;;;;;;;;5033639;28;20105;-76
2023/03/30 08:40:18;;;;;;;13.40;5.60;;;;;;;;;;5033506;28;20044;-75
2023/03/30 08:42:55;;;;;;;11.18;5.72;;;;;;;;;;5033976;28;20500;-75
2023/03/30 08:45:21;;;;;;;10.70;5.90;;;;;;;;;;5033995;28;20026;-78
2023/03/30 08:47:49;;;;;;;12.93;5.78;;;;;;;;;;5035469;28;20053;-74
2023/03/30 08:50:34;;;;;;;12.70;5.80;;;;;;;;;;5033301;28;20056;-75
2023/03/30 08:53:00;;;;;;;13.48;6.30;;;;;;;;;;5033329;28;20103;-73
2023/03/30 08:55:34;;;;;;;12.07;6.40;;;;;;;;;;5033791;28;20468;-74
2023/03/30 08:58:07;;;;;;;;;;;;;;;;;;5034348;28;20545;-75
2023/03/30 09:00:43;;;;;;;11.80;6.47;;;;;;;;;;5042934;28;19932;-76
2023/03/30 09:03:19;;;;;;;11.43;6.60;;;;;;;;;;5039919;28;20033;-77
2023/03/30 09:05:51;;;;;;;12.00;7.15;;;;;;;;;;5035768;28;20037;-77
2023/03/30 09:08:21;;;;;;;13.00;6.80;;;;;;;;;;5034698;28;20025;-78
2023/03/30 09:10:52;;;;;;;13.35;7.13;;;;;;;;;;5032265;28;20017;-77
2023/03/30 09:13:21;;;;;;;11.98;6.60;;;;;;;;;;5032039;28;20072;-76
2023/03/30 09:16:15;;;;;;;16.67;7.57;;;;;;;;;;5033235;28;20032;-76
2023/03/30 09:18:43;;;;;;;16.88;7.80;;;;;;;;;;5031742;28;20101;-76
2023/03/30 09:21:11;;;;;;;16.83;8.00;;;;;;;;;;5032734;28;20033;-76
2023/03/30 09:23:38;;;;;;;15.25;7.53;;;;;;;;;;5033192;28;20025;-76
2023/03/30 09:26:27;;;;;;;16.40;7.97;;;;;;;;;;5033009;28;20378;-76
2023/03/30 09:28:58;;;;;;;16.73;8.70;;;;;;;;;;5031794;28;20021;-76
2023/03/30 09:31:33;;;;;;;14.98;8.95;;;;;;;;;;5032853;28;20057;-76
2023/03/30 09:34:05;;;;;;;16.90;9.48;;;;;;;;;;5031582;28;20048;-75
2023/03/30 09:36:58;;;;;;;16.33;9.15;;;;;;;;;;5032912;28;20096;-74
2023/03/30 09:39:26;;;;;;;17.95;9.02;;;;;;;;;;5032905;28;20032;-75
2023/03/30 09:42:24;;;;;;;18.42;9.88;;;;;;;;;;5031398;28;20025;-75
2023/03/30 09:45:21;;;;;;;18.30;9.98;;;;;;;;;;5031396;28;20053;-75
2023/03/30 09:47:46;;;;;;;16.98;9.73;;;;;;;;;;5030555;28;20060;-75
2023/03/30 09:50:21;;;;;;;16.95;9.52;;;;;;;;;;5032931;28;20464;-75
2023/03/30 09:53:00;;;;;;;19.05;9.70;;;;;;;;;;5032884;28;20040;-75
2023/03/30 09:55:30;;;;;;;18.73;10.88;;;;;;;;;;5032983;28;20384;-75
2023/03/30 09:58:11;;;;;;;19.90;11.05;;;;;;;;;;5032488;28;20039;-75
2023/03/30 10:00:38;;;;;;;14.85;9.70;;;;;;;;;;5032399;28;20112;-75
2023/03/30 10:03:06;;;;;;;18.42;9.77;;;;;;;;;;5032431;28;20051;-76
2023/03/30 10:05:33;;;;;;;17.63;9.82;;;;;;;;;;5032524;28;20028;-75
2023/03/30 10:08:02;;;;;;;17.85;9.85;;;;;;;;;;5032492;28;20026;-75
2023/03/30 10:10:35;;;;;;;17.13;9.50;;;;;;;;;;5031185;28;20029;-76
2023/03/30 10:13:14;;;;;;;16.40;8.77;;;;;;;;;;5032446;28;20021;-76
2023/03/30 10:15:43;;;;;;;16.13;9.38;;;;;;;;;;5032630;28;20017;-75
2023/03/30 10:18:17;;;;;;;18.20;9.93;;;;;;;;;;5031140;28;20457;-75
2023/03/30 10:20:50;;;;;;;17.58;9.50;;;;;;;;;;5032641;28;20151;-75
2023/03/30 10:23:18;;;;;;;16.98;9.18;;;;;;;;;;5031149;28;20036;-75
2023/03/30 10:25:48;;;;;;;20.58;9.18;;;;;;;;;;5032298;28;20029;-74
2023/03/30 10:28:35;;;;;;;16.80;9.05;;;;;;;;;;5032288;28;20104;-75
2023/03/30 10:31:04;;;;;;;16.02;8.43;;;;;;;;;;5034346;28;20040;-75
2023/03/30 10:33:36;;;;;;;16.95;8.40;;;;;;;;;;5035920;28;20024;-75
2023/03/30 10:36:02;;;;;;;17.95;7.60;;;;;;;;;;5036163;28;20029;-75
2023/03/30 10:38:32;;;;;;;15.02;7.85;;;;;;;;;;5034401;28;20029;-74
2023/03/30 10:41:21;;;;;;;13.73;7.05;;;;;;;;;;5036157;28;20439;-76
2023/03/30 10:43:48;;;;;;;14.98;7.22;;;;;;;;;;5036258;28;20036;-76
2023/03/30 10:46:17;;;;;;;11.60;6.22;;;;;;;;;;5034739;28;20133;-75
2023/03/30 10:49:16;;;;;;;10.32;5.88;;;;;;;;;;5035952;28;20477;-75
2023/03/30 10:51:44;;;;;;;8.10;4.78;;;;;;;;;;5035628;28;20033;-75
2023/03/30 10:54:26;;;;;;;14.68;5.40;;;;;;;;;;5035610;28;20417;-75
2023/03/30 10:57:01;;;;;;;10.90;5.20;;;;;;;;;;5034118;28;20112;-75
2023/03/30 11:00:08;;;;;;;11.43;5.38;;;;;;;;;;5035460;28;20160;-75
2023/03/30 11:03:25;;;;;;;8.18;4.78;;;;;;;;;;5035501;28;20029;-75
2023/03/30 11:05:53;;;;;;;11.00;4.60;;;;;;;;;;5033755;28;20033;-75
2023/03/30 11:08:21;;;;;;;12.45;4.75;;;;;;;;;;5035326;28;20032;-75
2023/03/30 11:10:51;;;;;;;9.63;4.20;;;;;;;;;;5034015;28;20021;-73
2023/03/30 11:13:25;;;;;;;9.68;4.10;;;;;;;;;;5035212;28;20029;-73
2023/03/30 11:15:53;;;;;;;11.27;3.50;;;;;;;;;;5035565;28;20022;-73
2023/03/30 11:18:34;;;;;;;13.45;3.50;;;;;;;;;;5033920;28;20511;-74
2023/03/30 11:21:03;;;;;;;8.68;3.17;;;;;;;;;;5035166;28;20044;-74
2023/03/30 11:23:42;;;;;;;6.20;2.97;;;;;;;;;;5035761;28;20388;-73
2023/03/30 11:26:14;;;;;;;11.85;3.10;;;;;;;;;;5035267;28;20068;-74
2023/03/30 11:29:06;;;;;;;7.00;3.03;;;;;;;;;;5034915;28;20045;-74
2023/03/30 11:31:50;;;;;;;7.15;3.40;;;;;;;;;;5035262;28;20388;-73
2023/03/30 11:34:38;;;;;;;4.68;2.92;;;;;;;;;;5033621;28;20026;-73
2023/03/30 11:37:18;;;;;;;8.63;3.08;;;;;;;;;;5034716;28;20485;-74
2023/03/30 11:39:53;;;;;;;7.75;3.40;;;;;;;;;;5033540;28;20033;-74
2023/03/30 11:42:26;;;;;;;13.32;3.13;;;;;;;;;;5033400;28;20029;-73
2023/03/30 11:44:52;;;;;;;8.77;3.58;;;;;;;;;;5033373;28;20053;-73
2023/03/30 11:47:33;;;;;;;7.05;2.50;;;;;;;;;;5034575;28;20025;-73
2023/03/30 11:50:14;;;;;;;5.38;2.17;;;;;;;;;;5034526;28;20033;-73
2023/03/30 11:52:54;;;;;;;11.65;2.83;;;;;;;;;;5034746;28;20022;-73
2023/03/30 11:55:36;;;;;;;8.23;2.42;;;;;;;;;;5034904;28;20049;-74
2023/03/30 11:58:13;;;;;;;4.68;2.10;;;;;;;;;;5034261;28;20029;-74
2023/03/30 12:00:47;;;;;;;6.70;2.03;;;;;;;;;;5034568;28;20379;-74
2023/03/30 12:03:34;;;;;;;5.05;2.25;;;;;;;;;;5034827;28;20029;-74
2023/03/30 12:06:12;;;;;;;6.25;2.33;;;;;;;;;;5034501;28;20063;-74
2023/03/30 12:08:53;;;;;;;4.65;1.80;;;;;;;;;;5034614;28;20025;-75
2023/03/30 12:11:36;;;;;;;7.47;1.95;;;;;;;;;;5034394;28;20021;-73
2023/03/30 12:14:01;;;;;;;3.78;1.67;;;;;;;;;;5032997;28;20029;-73
2023/03/30 12:16:36;;;;;;;3.25;1.42;;;;;;;;;;5034205;28;20034;-73
2023/03/30 12:19:26;;;;;;;7.50;1.95;;;;;;;;;;5034055;28;20117;-74
2023/03/30 12:22:03;;;;;;;4.97;1.65;;;;;;;;;;5034414;28;20030;-73
2023/03/30 12:24:52;;;;;;;4.80;1.75;;;;;;;;;;5034221;28;20112;-74
2023/03/30 12:27:18;;;;;;;4.70;1.90;;;;;;;;;;5033504;28;20037;-75
2023/03/30 12:29:53;;;;;;;3.03;1.70;;;;;;;;;;5033843;28;20512;-73
2023/03/30 12:32:33;;;;;;;4.30;2.47;;;;;;;;;;5034182;28;20835;-74
2023/03/30 12:34:58;;;;;;;4.88;2.65;;;;;;;;;;5034031;28;20035;-74
2023/03/30 12:37:34;;;;;;;4.50;2.53;;;;;;;;;;5033968;28;20128;-74
2023/03/30 12:40:08;;;;;;;6.95;2.58;;;;;;;;;;5033881;28;20293;-74
2023/03/30 12:42:38;;;;;;;6.68;3.00;;;;;;;;;;5033992;28;20048;-74
2023/03/30 12:45:19;;;;;;;6.38;3.28;;;;;;;;;;5033936;28;20034;-72
2023/03/30 12:48:22;;;;;;;8.02;3.35;;;;;;;;;;5032470;28;20518;-72
2023/03/30 12:51:10;;;;;;;6.80;3.60;;;;;;;;;;5033885;28;20047;-75
2023/03/30 12:53:57;;;;;;;9.18;3.78;;;;;;;;;;5031484;28;20025;-75
2023/03/30 12:56:41;;;;;;;8.35;3.33;;;;;;;;;;5033350;28;20026;-74
2023/03/30 12:59:43;;;;;;;6.50;3.50;;;;;;;;;;5032038;28;20021;-74
2023/03/30 13:02:47;;;;;;;5.00;2.33;;;;;;;;;;5032120;28;20516;-73
2023/03/30 13:05:20;;;;;;;5.43;2.10;;;;;;;;;;5033459;28;20048;-74
2023/03/30 13:07:45;;;;;;;4.50;2.23;;;;;;;;;;5033583;28;20026;-73
2023/03/30 13:10:29;;;;;;;3.45;1.90;;;;;;;;;;5033139;28;20277;-74
2023/03/30 13:13:00;;;;;;;7.07;2.17;;;;;;;;;;5033454;28;20607;-74
2023/03/30 13:15:28;;;;;;;5.45;1.85;;;;;;;;;;5033149;28;20511;-74
2023/03/30 13:17:53;;;;;;;3.85;1.95;;;;;;;;;;5033310;28;20100;-74
2023/03/30 13:20:20;;;;;;;2.43;1.77;;;;;;;;;;5031859;28;20053;-73
2023/03/30 13:23:09;;;;;;;3.97;2.05;;;;;;;;;;5033313;28;20504;-73
2023/03/30 13:25:47;;;;;;;3.88;2.22;;;;;;;;;;5033031;28;20053;-73
2023/03/30 13:28:44;;;;;;;5.63;2.42;;;;;;;;;;5033548;28;20021;-73
2023/03/30 13:31:39;;;;;;;6.05;2.03;;;;;;;;;;5033023;28;20104;-73
2023/03/30 13:34:29;;;;;;;6.40;2.08;;;;;;;;;;5033379;28;20033;-72
2023/03/30 13:37:08;;;;;;;4.80;1.80;;;;;;;;;;5032875;28;20099;-73
2023/03/30 13:39:45;;;;;;;5.60;1.70;;;;;;;;;;5033133;28;20064;-73
2023/03/30 13:42:35;;;;;;;3.78;1.52;;;;;;;;;;5032768;28;20022;-74
2023/03/30 13:45:21;;;;;;;6.35;1.70;;;;;;;;;;5031196;28;20440;-75
2023/03/30 13:47:59;;;;;;;4.38;1.92;;;;;;;;;;5032752;28;20075;-73
2023/03/30 13:50:27;;;;;;;7.85;1.92;;;;;;;;;;5031725;28;20088;-75
2023/03/30 13:52:56;;;;;;;5.97;1.92;;;;;;;;;;5033008;28;20025;-75
2023/03/30 13:55:28;;;;;;;5.60;1.83;;;;;;;;;;5032540;28;20551;-76
2023/03/30 13:58:01;;;;;;;5.57;1.90;;;;;;;;;;5031322;28;20404;-76
2023/03/30 14:00:48;;;;;;;3.60;1.90;;;;;;;;;;5032936;28;20091;-76
2023/03/30 14:03:46;;;;;;;4.47;2.05;;;;;;;;;;5032739;28;20018;-73
2023/03/30 14:06:12;;;;;;;4.47;1.98;;;;;;;;;;5035421;28;20034;-76
2023/03/30 14:08:38;;;;;;;5.57;1.90;;;;;;;;;;5036504;28;20018;-76
2023/03/30 14:11:12;;;;;;;5.35;1.65;;;;;;;;;;5036777;28;20049;-75
2023/03/30 14:13:37;;;;;;;4.45;1.95;;;;;;;;;;5036441;28;20108;-75
2023/03/30 14:16:02;;;;;;;3.55;1.90;;;;;;;;;;5036552;28;20056;-76
2023/03/30 14:18:28;;;;;;;7.15;2.13;;;;;;;;;;5036218;28;20124;-74
2023/03/30 14:20:59;;;;;;;2.78;1.60;;;;;;;;;;5036157;28;20044;-75
2023/03/30 14:23:33;;;;;;;3.92;1.75;;;;;;;;;;5036286;28;20025;-75
2023/03/30 14:26:01;;;;;;;4.85;1.88;;;;;;;;;;5036428;28;20057;-75
2023/03/30 14:28:28;;;;;;;6.78;1.58;;;;;;;;;;5036196;28;20469;-73
2023/03/30 14:31:03;;;;;;;6.20;1.75;;;;;;;;;;5036209;28;20496;-76
2023/03/30 14:33:29;;;;;;;6.60;1.67;;;;;;;;;;5036371;28;20514;-75
2023/03/30 14:35:56;;;;;;;7.28;1.55;;;;;;;;;;5036253;28;20193;-75
2023/03/30 14:38:24;;;;;;;4.53;1.60;;;;;;;;;;5035966;28;20029;-75
2023/03/30 14:40:52;;;;;;;2.50;1.30;;;;;;;;;;5036128;28;20095;-76
2023/03/30 14:43:27;;;;;;;5.68;1.85;;;;;;;;;;5036011;28;20573;-73
2023/03/30 14:45:56;;;;;;;4.13;1.48;;;;;;;;;;5037741;28;20025;-79
2023/03/30 14:48:27;;;;;;;3.22;1.30;;;;;;;;;;5036852;28;20424;-75
2023/03/30 14:50:52;;;;;;;5.30;1.48;;;;;;;;;;5035549;28;20029;-73
2023/03/30 14:53:25;;;;;;;3.72;1.35;;;;;;;;;;5035860;28;20021;-72
2023/03/30 14:55:55;;;;;;;3.55;1.40;;;;;;;;;;5035884;28;20036;-73
2023/03/30 14:58:21;;;;;;;2.22;1.20;;;;;;;;;;5035658;28;20021;-73
2023/03/30 15:00:48;;;;;;;3.45;1.35;;;;;;;;;;5035383;28;20497;-76
2023/03/30 15:03:16;;;;;;;4.18;1.40;;;;;;;;;;5035757;28;20101;-74